sensor_id;sensor_type;location;lat;lon;timestamp;pressure;altitude;pressure_sealevel;temperature;humidity
72116;BME280;59991;52.140;5.428;2023-04-08T00:00:19;102319.53;;;7.85;100.00
72116;BME280;59991;52.140;5.428;2023-04-08T00:00:51;102314.09;;;7.85;100.00
72116;BME280;59991;52.140;5.428;2023-04-08T00:01:22;102319.06;;;7.83;100.00
72116;BME280;59991;52.140;5.428;2023-04-08T00:01:54;102318.25;;;7.82;100.00
72116;BME280;59991;52.140;5.428;2023-04-08T00:02:25;102323.38;;;7.84;100.00
72116;BME280;59991;52.140;5.428;2023-04-08T00:02:57;102320.19;;;7.82;100.00
72116;BME280;59991;52.140;5.428;2023-04-08T00:03:28;102316.34;;;7.83;100.00
72116;BME280;59991;52.140;5.428;2023-04-08T00:04:01;102320.66;;;7.84;100.00
72116;BME280;59991;52.140;5.428;2023-04-08T00:04:33;102321.47;;;7.84;100.00
72116;BME280;59991;52.140;5.428;2023-04-08T00:05:05;102319.84;;;7.83;100.00
72116;BME280;59991;52.140;5.428;2023-04-08T00:05:36;102314.09;;;7.85;100.00
72116;BME280;59991;52.140;5.428;2023-04-08T00:06:08;102320.66;;;7.84;100.00
72116;BME280;59991;52.140;5.428;2023-04-08T00:06:39;102315.53;;;7.82;100.00
72116;BME280;59991;52.140;5.428;2023-04-08T00:07:11;102310.44;;;7.81;100.00
72116;BME280;59991;52.140;5.428;2023-04-08T00:07:42;102326.09;;;7.84;100.00
72116;BME280;59991;52.140;5.428;2023-04-08T00:08:14;102321.78;;;7.83;100.00
72116;BME280;59991;52.140;5.428;2023-04-08T00:08:45;102314.75;;;7.82;100.00
72116;BME280;59991;52.140;5.428;2023-04-08T00:09:17;102322.09;;;7.81;100.00
72116;BME280;59991;52.140;5.428;2023-04-08T00:09:49;102323.22;;;7.80;100.00
72116;BME280;59991;52.140;5.428;2023-04-08T00:10:20;102317.31;;;7.78;100.00
72116;BME280;59991;52.140;5.428;2023-04-08T00:10:52;102314.91;;;7.77;100.00
72116;BME280;59991;52.140;5.428;2023-04-08T00:11:23;102324.66;;;7.78;100.00
72116;BME280;59991;52.140;5.428;2023-04-08T00:11:55;102323.84;;;7.77;100.00
72116;BME280;59991;52.140;5.428;2023-04-08T00:12:27;102323.38;;;7.75;100.00
72116;BME280;59991;52.140;5.428;2023-04-08T00:12:58;102321.47;;;7.76;100.00
72116;BME280;59991;52.140;5.428;2023-04-08T00:13:31;102325.28;;;7.75;100.00
72116;BME280;59991;52.140;5.428;2023-04-08T00:14:02;102329.13;;;7.74;100.00
72116;BME280;59991;52.140;5.428;2023-04-08T00:14:34;102325.59;;;7.73;100.00
72116;BME280;59991;52.140;5.428;2023-04-08T00:15:06;102325.94;;;7.72;100.00
72116;BME280;59991;52.140;5.428;2023-04-08T00:15:37;102320.03;;;7.70;100.00
72116;BME280;59991;52.140;5.428;2023-04-08T00:16:09;102325.00;;;7.68;100.00
72116;BME280;59991;52.140;5.428;2023-04-08T00:16:40;102325.78;;;7.68;100.00
72116;BME280;59991;52.140;5.428;2023-04-08T00:17:12;102325.00;;;7.68;100.00
72116;BME280;59991;52.140;5.428;2023-04-08T00:17:43;102319.56;;;7.68;100.00
72116;BME280;59991;52.140;5.428;2023-04-08T00:18:15;102325.00;;;7.68;100.00
72116;BME280;59991;52.140;5.428;2023-04-08T00:18:47;102333.63;;;7.70;100.00
72116;BME280;59991;52.140;5.428;2023-04-08T00:19:19;102327.41;;;7.69;100.00
72116;BME280;59991;52.140;5.428;2023-04-08T00:19:51;102327.03;;;7.71;100.00
72116;BME280;59991;52.140;5.428;2023-04-08T00:20:23;102327.03;;;7.71;100.00
72116;BME280;59991;52.140;5.428;2023-04-08T00:20:55;102331.34;;;7.72;100.00
72116;BME280;59991;52.140;5.428;2023-04-08T00:21:27;102324.31;;;7.71;100.00
72116;BME280;59991;52.140;5.428;2023-04-08T00:21:58;102322.75;;;7.70;100.00
72116;BME280;59991;52.140;5.428;2023-04-08T00:22:30;102327.84;;;7.71;100.00
72116;BME280;59991;52.140;5.428;2023-04-08T00:23:01;102329.44;;;7.72;100.00
72116;BME280;59991;52.140;5.428;2023-04-08T00:23:33;102319.38;;;7.73;100.00
72116;BME280;59991;52.140;5.428;2023-04-08T00:24:05;102328.31;;;7.73;100.00
72116;BME280;59991;52.140;5.428;2023-04-08T00:24:37;102322.91;;;7.73;100.00
72116;BME280;59991;52.140;5.428;2023-04-08T00:25:08;102325.94;;;7.72;100.00
72116;BME280;59991;52.140;5.428;2023-04-08T00:25:40;102322.41;;;7.71;100.00
72116;BME280;59991;52.140;5.428;2023-04-08T00:26:11;102321.28;;;7.72;100.00
72116;BME280;59991;52.140;5.428;2023-04-08T00:26:42;102327.84;;;7.71;100.00
72116;BME280;59991;52.140;5.428;2023-04-08T00:27:14;102327.03;;;7.71;100.00
72116;BME280;59991;52.140;5.428;2023-04-08T00:27:45;102318.59;;;7.72;100.00
72116;BME280;59991;52.140;5.428;2023-04-08T00:28:17;102324.31;;;7.71;100.00
72116;BME280;59991;52.140;5.428;2023-04-08T00:28:48;102332.47;;;7.71;100.00
72116;BME280;59991;52.140;5.428;2023-04-08T00:29:20;102324.31;;;7.71;100.00
72116;BME280;59991;52.140;5.428;2023-04-08T00:29:51;102329.75;;;7.71;100.00
72116;BME280;59991;52.140;5.428;2023-04-08T00:30:22;102318.09;;;7.70;100.00
72116;BME280;59991;52.140;5.428;2023-04-08T00:30:54;102329.13;;;7.74;100.00
72116;BME280;59991;52.140;5.428;2023-04-08T00:31:26;102324.81;;;7.73;100.00
72116;BME280;59991;52.140;5.428;2023-04-08T00:31:57;102323.69;;;7.74;100.00
72116;BME280;59991;52.140;5.428;2023-04-08T00:32:29;102327.22;;;7.74;100.00
72116;BME280;59991;52.140;5.428;2023-04-08T00:33:00;102330.72;;;7.75;100.00
72116;BME280;59991;52.140;5.428;2023-04-08T00:33:32;102328.00;;;7.75;100.00
72116;BME280;59991;52.140;5.428;2023-04-08T00:34:03;102332.63;;;7.74;100.00
72116;BME280;59991;52.140;5.428;2023-04-08T00:34:35;102322.41;;;7.71;100.00
72116;BME280;59991;52.140;5.428;2023-04-08T00:35:07;102321.16;;;7.69;100.00
72116;BME280;59991;52.140;5.428;2023-04-08T00:35:39;102325.31;;;7.66;100.00
72116;BME280;59991;52.140;5.428;2023-04-08T00:36:10;102324.03;;;7.63;100.00
72116;BME280;59991;52.140;5.428;2023-04-08T00:36:41;102327.56;;;7.64;100.00
72116;BME280;59991;52.140;5.428;2023-04-08T00:37:13;102326.75;;;7.63;100.00
72116;BME280;59991;52.140;5.428;2023-04-08T00:37:44;102328.34;;;7.65;100.00
72116;BME280;59991;52.140;5.428;2023-04-08T00:38:16;102331.06;;;7.65;100.00
72116;BME280;59991;52.140;5.428;2023-04-08T00:38:47;102326.75;;;7.63;100.00
72116;BME280;59991;52.140;5.428;2023-04-08T00:39:19;102331.38;;;7.63;100.00
72116;BME280;59991;52.140;5.428;2023-04-08T00:39:50;102331.38;;;7.63;100.00
72116;BME280;59991;52.140;5.428;2023-04-08T00:40:24;102331.69;;;7.61;100.00
72116;BME280;59991;52.140;5.428;2023-04-08T00:40:55;102332.50;;;7.62;100.00
72116;BME280;59991;52.140;5.428;2023-04-08T00:41:26;102330.09;;;7.60;100.00
72116;BME280;59991;52.140;5.428;2023-04-08T00:41:58;102325.00;;;7.59;100.00
72116;BME280;59991;52.140;5.428;2023-04-08T00:42:29;102326.09;;;7.58;100.00
72116;BME280;59991;52.140;5.428;2023-04-08T00:43:01;102331.22;;;7.59;100.00
72116;BME280;59991;52.140;5.428;2023-04-08T00:43:32;102333.94;;;7.59;100.00
72116;BME280;59991;52.140;5.428;2023-04-08T00:44:03;102332.34;;;7.58;100.00
72116;BME280;59991;52.140;5.428;2023-04-08T00:44:35;102339.69;;;7.58;100.00
72116;BME280;59991;52.140;5.428;2023-04-08T00:45:07;102329.94;;;7.57;100.00
72116;BME280;59991;52.140;5.428;2023-04-08T00:45:39;102340.00;;;7.56;100.00
72116;BME280;59991;52.140;5.428;2023-04-08T00:46:10;102339.50;;;7.54;100.00
72116;BME280;59991;52.140;5.428;2023-04-08T00:46:42;102333.59;;;7.52;100.00
72116;BME280;59991;52.140;5.428;2023-04-08T00:47:14;102339.03;;;7.52;100.00
72116;BME280;59991;52.140;5.428;2023-04-08T00:47:46;102333.59;;;7.52;100.00
72116;BME280;59991;52.140;5.428;2023-04-08T00:48:22;102333.59;;;7.52;100.00
72116;BME280;59991;52.140;5.428;2023-04-08T00:48:54;102334.41;;;7.53;100.00
72116;BME280;59991;52.140;5.428;2023-04-08T00:49:25;102339.03;;;7.52;100.00
72116;BME280;59991;52.140;5.428;2023-04-08T00:49:57;102339.03;;;7.52;100.00
72116;BME280;59991;52.140;5.428;2023-04-08T00:50:28;102334.72;;;7.51;100.00
72116;BME280;59991;52.140;5.428;2023-04-08T00:51:00;102339.34;;;7.51;100.00
72116;BME280;59991;52.140;5.428;2023-04-08T00:51:33;102336.97;;;7.49;100.00
72116;BME280;59991;52.140;5.428;2023-04-08T00:52:06;102335.38;;;7.48;100.00
72116;BME280;59991;52.140;5.428;2023-04-08T00:52:37;102342.41;;;7.49;100.00
72116;BME280;59991;52.140;5.428;2023-04-08T00:53:09;102334.28;;;7.49;100.00
72116;BME280;59991;52.140;5.428;2023-04-08T00:53:41;102334.59;;;7.48;100.00
72116;BME280;59991;52.140;5.428;2023-04-08T00:54:12;102337.78;;;7.50;100.00
72116;BME280;59991;52.140;5.428;2023-04-08T00:54:43;102334.28;;;7.49;100.00
72116;BME280;59991;52.140;5.428;2023-04-08T00:55:15;102338.59;;;7.50;100.00
72116;BME280;59991;52.140;5.428;2023-04-08T00:55:46;102338.09;;;7.48;100.00
72116;BME280;59991;52.140;5.428;2023-04-08T00:56:18;102339.34;;;7.51;100.00
72116;BME280;59991;52.140;5.428;2023-04-08T00:56:49;102338.91;;;7.49;100.00
72116;BME280;59991;52.140;5.428;2023-04-08T00:57:20;102335.69;;;7.47;100.00
72116;BME280;59991;52.140;5.428;2023-04-08T00:57:52;102330.91;;;7.44;100.00
72116;BME280;59991;52.140;5.428;2023-04-08T00:58:23;102334.41;;;7.44;100.00
72116;BME280;59991;52.140;5.428;2023-04-08T00:58:55;102337.13;;;7.44;100.00
72116;BME280;59991;52.140;5.428;2023-04-08T00:59:28;102337.13;;;7.44;100.00
72116;BME280;59991;52.140;5.428;2023-04-08T01:00:01;102335.53;;;7.43;100.00
72116;BME280;59991;52.140;5.428;2023-04-08T01:00:39;102342.09;;;7.42;100.00
72116;BME280;59991;52.140;5.428;2023-04-08T01:01:41;102342.09;;;7.42;100.00
72116;BME280;59991;52.140;5.428;2023-04-08T01:02:32;102348.63;;;7.41;100.00
72116;BME280;59991;52.140;5.428;2023-04-08T01:03:15;102346.22;;;7.40;100.00
72116;BME280;59991;52.140;5.428;2023-04-08T01:05:14;102342.72;;;7.31;100.00
72116;BME280;59991;52.140;5.428;2023-04-08T01:05:59;102344.16;;;7.28;100.00
72116;BME280;59991;52.140;5.428;2023-04-08T01:07:34;102346.38;;;7.26;100.00
72116;BME280;59991;52.140;5.428;2023-04-08T01:08:08;102344.00;;;7.24;100.00
72116;BME280;59991;52.140;5.428;2023-04-08T01:08:42;102342.38;;;7.23;100.00
72116;BME280;59991;52.140;5.428;2023-04-08T01:09:17;102339.19;;;7.21;100.00
72116;BME280;59991;52.140;5.428;2023-04-08T01:09:53;102339.19;;;7.21;100.00
72116;BME280;59991;52.140;5.428;2023-04-08T01:10:28;102340.78;;;7.22;100.00
72116;BME280;59991;52.140;5.428;2023-04-08T01:11:02;102342.69;;;7.22;100.00
72116;BME280;59991;52.140;5.428;2023-04-08T01:11:36;102345.91;;;7.24;100.00
72116;BME280;59991;52.140;5.428;2023-04-08T01:12:11;102345.41;;;7.22;100.00
72116;BME280;59991;52.140;5.428;2023-04-08T01:13:03;102342.38;;;7.23;100.00
72116;BME280;59991;52.140;5.428;2023-04-08T01:13:39;102345.09;;;7.23;100.00
72116;BME280;59991;52.140;5.428;2023-04-08T01:14:14;102344.00;;;7.24;100.00
72116;BME280;59991;52.140;5.428;2023-04-08T01:14:48;102348.63;;;7.24;100.00
72116;BME280;59991;52.140;5.428;2023-04-08T01:15:21;102355.63;;;7.25;100.00
72116;BME280;59991;52.140;5.428;2023-04-08T01:15:55;102343.19;;;7.24;100.00
72116;BME280;59991;52.140;5.428;2023-04-08T01:16:27;102348.63;;;7.24;100.00
72116;BME280;59991;52.140;5.428;2023-04-08T01:16:59;102349.72;;;7.23;100.00
72116;BME280;59991;52.140;5.428;2023-04-08T01:17:32;102348.13;;;7.22;100.00
72116;BME280;59991;52.140;5.428;2023-04-08T01:18:06;102345.41;;;7.22;100.00
72116;BME280;59991;52.140;5.428;2023-04-08T01:18:40;102342.53;;;7.18;100.00
72116;BME280;59991;52.140;5.428;2023-04-08T01:19:24;102339.34;;;7.16;100.00
72116;BME280;59991;52.140;5.428;2023-04-08T01:19:59;102350.97;;;7.17;100.00
72116;BME280;59991;52.140;5.428;2023-04-08T01:20:32;102343.47;;;7.14;100.00
72116;BME280;59991;52.140;5.428;2023-04-08T01:21:05;102345.38;;;7.13;100.00
72116;BME280;59991;52.140;5.428;2023-04-08T01:21:37;102348.09;;;7.13;100.00
72116;BME280;59991;52.140;5.428;2023-04-08T01:22:22;102356.72;;;7.15;100.00
72116;BME280;59991;52.140;5.428;2023-04-08T01:23:04;102356.72;;;7.15;100.00
72116;BME280;59991;52.140;5.428;2023-04-08T01:24:20;102350.97;;;7.17;100.00
72116;BME280;59991;52.140;5.428;2023-04-08T01:25:00;102348.28;;;7.17;100.00
72116;BME280;59991;52.140;5.428;2023-04-08T01:25:35;102348.75;;;7.19;100.00
72116;BME280;59991;52.140;5.428;2023-04-08T01:26:06;102341.72;;;7.18;100.00
72116;BME280;59991;52.140;5.428;2023-04-08T01:26:39;102346.84;;;7.19;100.00
72116;BME280;59991;52.140;5.428;2023-04-08T01:27:11;102352.59;;;7.18;100.00
72116;BME280;59991;52.140;5.428;2023-04-08T01:27:44;102353.69;;;7.17;100.00
72116;BME280;59991;52.140;5.428;2023-04-08T01:28:20;102348.91;;;7.14;100.00
72116;BME280;59991;52.140;5.428;2023-04-08T01:28:55;102349.22;;;7.12;100.00
72116;BME280;59991;52.140;5.428;2023-04-08T01:29:28;102349.22;;;7.12;100.00
72116;BME280;59991;52.140;5.428;2023-04-08T01:30:02;102346.84;;;7.11;100.00
72116;BME280;59991;52.140;5.428;2023-04-08T01:30:37;102348.44;;;7.12;100.00
72116;BME280;59991;52.140;5.428;2023-04-08T01:31:08;102354.31;;;7.14;100.00
72116;BME280;59991;52.140;5.428;2023-04-08T01:31:41;102349.69;;;7.14;100.00
72116;BME280;59991;52.140;5.428;2023-04-08T01:32:13;102353.22;;;7.15;100.00
72116;BME280;59991;52.140;5.428;2023-04-08T01:32:46;102352.41;;;7.14;100.00
72116;BME280;59991;52.140;5.428;2023-04-08T01:33:19;102355.13;;;7.14;100.00
72116;BME280;59991;52.140;5.428;2023-04-08T01:33:52;102351.31;;;7.15;100.00
72116;BME280;59991;52.140;5.428;2023-04-08T01:34:25;102347.00;;;7.14;100.00
72116;BME280;59991;52.140;5.428;2023-04-08T01:34:57;102354.00;;;7.15;100.00
72116;BME280;59991;52.140;5.428;2023-04-08T01:35:29;102358.63;;;7.15;100.00
72116;BME280;59991;52.140;5.428;2023-04-08T01:36:02;102353.69;;;7.17;100.00
72116;BME280;59991;52.140;5.428;2023-04-08T01:36:34;102350.50;;;7.15;100.00
72116;BME280;59991;52.140;5.428;2023-04-08T01:37:07;102356.41;;;7.17;100.00
72116;BME280;59991;52.140;5.428;2023-04-08T01:37:39;102355.63;;;7.16;100.00
72116;BME280;59991;52.140;5.428;2023-04-08T01:38:17;102349.69;;;7.14;100.00
72116;BME280;59991;52.140;5.428;2023-04-08T01:38:49;102348.09;;;7.13;100.00
72116;BME280;59991;52.140;5.428;2023-04-08T01:39:21;102348.91;;;7.14;100.00
72116;BME280;59991;52.140;5.428;2023-04-08T01:39:54;102350.81;;;7.13;100.00
72116;BME280;59991;52.140;5.428;2023-04-08T01:40:26;102349.56;;;7.11;100.00
72116;BME280;59991;52.140;5.428;2023-04-08T01:40:58;102346.50;;;7.12;100.00
72116;BME280;59991;52.140;5.428;2023-04-08T01:41:32;102347.31;;;7.13;100.00
72116;BME280;59991;52.140;5.428;2023-04-08T01:42:04;102359.28;;;7.12;100.00
72116;BME280;59991;52.140;5.428;2023-04-08T01:42:36;102348.44;;;7.12;100.00
72116;BME280;59991;52.140;5.428;2023-04-08T01:43:09;102354.97;;;7.11;100.00
72116;BME280;59991;52.140;5.428;2023-04-08T01:43:42;102358.50;;;7.11;100.00
72116;BME280;59991;52.140;5.428;2023-04-08T01:44:15;102353.88;;;7.12;100.00
72116;BME280;59991;52.140;5.428;2023-04-08T01:44:48;102351.16;;;7.12;100.00
72116;BME280;59991;52.140;5.428;2023-04-08T01:45:21;102351.94;;;7.12;100.00
72116;BME280;59991;52.140;5.428;2023-04-08T01:45:53;102357.69;;;7.11;100.00
72116;BME280;59991;52.140;5.428;2023-04-08T01:46:30;102354.97;;;7.11;100.00
72116;BME280;59991;52.140;5.428;2023-04-08T01:47:02;102348.75;;;7.10;100.00
72116;BME280;59991;52.140;5.428;2023-04-08T01:47:34;102354.97;;;7.11;100.00
72116;BME280;59991;52.140;5.428;2023-04-08T01:48:08;102354.97;;;7.11;100.00
72116;BME280;59991;52.140;5.428;2023-04-08T01:48:40;102359.91;;;7.09;100.00
72116;BME280;59991;52.140;5.428;2023-04-08T01:49:13;102354.50;;;7.09;100.00
72116;BME280;59991;52.140;5.428;2023-04-08T01:49:46;102360.25;;;7.07;100.00
72116;BME280;59991;52.140;5.428;2023-04-08T01:50:18;102359.44;;;7.07;100.00
72116;BME280;59991;52.140;5.428;2023-04-08T01:50:51;102357.03;;;7.05;100.00
72116;BME280;59991;52.140;5.428;2023-04-08T01:51:23;102361.66;;;7.05;100.00
72116;BME280;59991;52.140;5.428;2023-04-08T01:51:57;102357.66;;;7.02;100.00
72116;BME280;59991;52.140;5.428;2023-04-08T01:52:29;102359.25;;;7.03;100.00
72116;BME280;59991;52.140;5.428;2023-04-08T01:53:02;102357.66;;;7.02;100.00
72116;BME280;59991;52.140;5.428;2023-04-08T01:53:35;102361.19;;;7.03;100.00
72116;BME280;59991;52.140;5.428;2023-04-08T01:54:06;102362.28;;;7.02;100.00
72116;BME280;59991;52.140;5.428;2023-04-08T01:54:38;102361.19;;;7.03;100.00
72116;BME280;59991;52.140;5.428;2023-04-08T01:55:09;102353.84;;;7.03;100.00
72116;BME280;59991;52.140;5.428;2023-04-08T01:55:42;102357.34;;;7.04;100.00
72116;BME280;59991;52.140;5.428;2023-04-08T01:56:14;102360.88;;;7.04;100.00
72116;BME280;59991;52.140;5.428;2023-04-08T01:56:46;102364.69;;;7.03;100.00
72116;BME280;59991;52.140;5.428;2023-04-08T01:57:23;102365.50;;;7.04;100.00
72116;BME280;59991;52.140;5.428;2023-04-08T01:57:58;102355.44;;;7.04;100.00
72116;BME280;59991;52.140;5.428;2023-04-08T01:58:36;102354.63;;;7.04;100.00
72116;BME280;59991;52.140;5.428;2023-04-08T01:59:12;102361.97;;;7.03;100.00
72116;BME280;59991;52.140;5.428;2023-04-08T01:59:47;102359.09;;;7.00;100.00
72116;BME280;59991;52.140;5.428;2023-04-08T02:00:23;102361.31;;;6.98;100.00
72116;BME280;59991;52.140;5.428;2023-04-08T02:00:57;102367.06;;;6.96;100.00
72116;BME280;59991;52.140;5.428;2023-04-08T02:01:29;102361.94;;;6.94;100.00
72116;BME280;59991;52.140;5.428;2023-04-08T02:02:05;102364.19;;;6.92;100.00
72116;BME280;59991;52.140;5.428;2023-04-08T02:02:41;102360.69;;;6.92;100.00
72116;BME280;59991;52.140;5.428;2023-04-08T02:03:16;102359.09;;;6.91;100.00
72116;BME280;59991;52.140;5.428;2023-04-08T02:03:49;102352.56;;;6.92;100.00
72116;BME280;59991;52.140;5.428;2023-04-08T02:04:22;102354.91;;;6.93;100.00
72116;BME280;59991;52.140;5.428;2023-04-08T02:04:54;102363.53;;;6.96;100.00
72116;BME280;59991;52.140;5.428;2023-04-08T02:05:25;102359.72;;;6.97;100.00
72116;BME280;59991;52.140;5.428;2023-04-08T02:05:57;102365.13;;;6.97;100.00
72116;BME280;59991;52.140;5.428;2023-04-08T02:06:29;102362.13;;;6.98;100.00
72116;BME280;59991;52.140;5.428;2023-04-08T02:07:01;102356.38;;;7.00;100.00
72116;BME280;59991;52.140;5.428;2023-04-08T02:07:33;102357.97;;;7.01;100.00
72116;BME280;59991;52.140;5.428;2023-04-08T02:08:04;102354.47;;;7.00;100.00
72116;BME280;59991;52.140;5.428;2023-04-08T02:08:36;102361.50;;;7.01;100.00
72116;BME280;59991;52.140;5.428;2023-04-08T02:09:07;102354.78;;;6.99;100.00
72116;BME280;59991;52.140;5.428;2023-04-08T02:09:39;102359.41;;;6.98;100.00
72116;BME280;59991;52.140;5.428;2023-04-08T02:10:10;102360.22;;;6.99;100.00
72116;BME280;59991;52.140;5.428;2023-04-08T02:10:42;102351.59;;;6.97;100.00
72116;BME280;59991;52.140;5.428;2023-04-08T02:11:13;102358.91;;;6.96;100.00
72116;BME280;59991;52.140;5.428;2023-04-08T02:11:44;102362.44;;;6.97;100.00
72116;BME280;59991;52.140;5.428;2023-04-08T02:12:16;102355.72;;;6.94;100.00
72116;BME280;59991;52.140;5.428;2023-04-08T02:12:47;102355.41;;;6.96;100.00
72116;BME280;59991;52.140;5.428;2023-04-08T02:13:19;102360.03;;;6.95;100.00
72116;BME280;59991;52.140;5.428;2023-04-08T02:13:51;102352.22;;;6.93;100.00
72116;BME280;59991;52.140;5.428;2023-04-08T02:14:23;102352.22;;;6.93;100.00
72116;BME280;59991;52.140;5.428;2023-04-08T02:14:54;102355.72;;;6.94;100.00
72116;BME280;59991;52.140;5.428;2023-04-08T02:15:33;102353.00;;;6.94;100.00
72116;BME280;59991;52.140;5.428;2023-04-08T02:16:21;102350.78;;;6.96;100.00
72116;BME280;59991;52.140;5.428;2023-04-08T02:17:59;102352.69;;;6.96;100.00
72116;BME280;59991;52.140;5.428;2023-04-08T02:18:42;102353.00;;;6.94;100.00
72116;BME280;59991;52.140;5.428;2023-04-08T02:19:21;102351.91;;;6.95;100.00
72116;BME280;59991;52.140;5.428;2023-04-08T02:20:16;102352.69;;;6.96;100.00
72116;BME280;59991;52.140;5.428;2023-04-08T02:21:09;102357.31;;;6.95;100.00
72116;BME280;59991;52.140;5.428;2023-04-08T02:21:53;102355.41;;;6.96;100.00
72116;BME280;59991;52.140;5.428;2023-04-08T02:22:32;102352.22;;;6.93;100.00
72116;BME280;59991;52.140;5.428;2023-04-08T02:23:17;102357.31;;;6.95;100.00
72116;BME280;59991;52.140;5.428;2023-04-08T02:23:49;102356.06;;;6.92;100.00
72116;BME280;59991;52.140;5.428;2023-04-08T02:24:21;102363.41;;;6.92;100.00
72116;BME280;59991;52.140;5.428;2023-04-08T02:24:53;102357.97;;;6.92;100.00
72116;BME280;59991;52.140;5.428;2023-04-08T02:25:26;102365.31;;;6.91;100.00
72116;BME280;59991;52.140;5.428;2023-04-08T02:26:00;102370.25;;;6.89;100.00
72116;BME280;59991;52.140;5.428;2023-04-08T02:26:35;102362.75;;;6.86;100.00
72116;BME280;59991;52.140;5.428;2023-04-08T02:27:09;102362.75;;;6.86;100.00
72116;BME280;59991;52.140;5.428;2023-04-08T02:27:41;102364.34;;;6.87;100.00
72116;BME280;59991;52.140;5.428;2023-04-08T02:28:16;102367.34;;;6.86;100.00
72116;BME280;59991;52.140;5.428;2023-04-08T02:28:48;102365.75;;;6.85;100.00
72116;BME280;59991;52.140;5.428;2023-04-08T02:29:21;102363.66;;;6.82;100.00
72116;BME280;59991;52.140;5.428;2023-04-08T02:29:54;102364.78;;;6.81;100.00
72116;BME280;59991;52.140;5.428;2023-04-08T02:30:27;102364.78;;;6.81;100.00
72116;BME280;59991;52.140;5.428;2023-04-08T02:31:00;102366.69;;;6.80;100.00
72116;BME280;59991;52.140;5.428;2023-04-08T02:31:33;102368.59;;;6.80;100.00
72116;BME280;59991;52.140;5.428;2023-04-08T02:32:07;102359.34;;;6.81;100.00
72116;BME280;59991;52.140;5.428;2023-04-08T02:32:41;102370.19;;;6.81;100.00
72116;BME280;59991;52.140;5.428;2023-04-08T02:33:16;102370.53;;;6.79;100.00
72116;BME280;59991;52.140;5.428;2023-04-08T02:33:50;102366.53;;;6.77;100.00
72116;BME280;59991;52.140;5.428;2023-04-08T02:34:22;102369.22;;;6.77;100.00
72116;BME280;59991;52.140;5.428;2023-04-08T02:34:55;102369.53;;;6.75;100.00
72116;BME280;59991;52.140;5.428;2023-04-08T02:35:28;102361.72;;;6.74;100.00
72116;BME280;59991;52.140;5.428;2023-04-08T02:36:00;102369.84;;;6.74;100.00
72116;BME280;59991;52.140;5.428;2023-04-08T02:36:33;102363.16;;;6.71;100.00
72116;BME280;59991;52.140;5.428;2023-04-08T02:37:05;102364.59;;;6.69;100.00
72116;BME280;59991;52.140;5.428;2023-04-08T02:37:36;102366.00;;;6.66;100.00
72116;BME280;59991;52.140;5.428;2023-04-08T02:38:08;102365.03;;;6.62;100.00
72116;BME280;59991;52.140;5.428;2023-04-08T02:38:40;102368.84;;;6.61;100.00
72116;BME280;59991;52.140;5.428;2023-04-08T02:39:12;102364.06;;;6.58;100.00
72116;BME280;59991;52.140;5.428;2023-04-08T02:39:44;102367.88;;;6.57;100.00
72116;BME280;59991;52.140;5.428;2023-04-08T02:40:22;102362.47;;;6.57;100.00
72116;BME280;59991;52.140;5.428;2023-04-08T02:40:54;102369.47;;;6.58;100.00
72116;BME280;59991;52.140;5.428;2023-04-08T02:41:29;102364.84;;;6.58;100.00
72116;BME280;59991;52.140;5.428;2023-04-08T02:42:01;102371.06;;;6.59;100.00
72116;BME280;59991;52.140;5.428;2023-04-08T02:42:32;102369.97;;;6.60;100.00
72116;BME280;59991;52.140;5.428;2023-04-08T02:43:03;102368.84;;;6.61;100.00
72116;BME280;59991;52.140;5.428;2023-04-08T02:43:35;102370.44;;;6.62;100.00
72116;BME280;59991;52.140;5.428;2023-04-08T02:44:08;102372.38;;;6.62;100.00
72116;BME280;59991;52.140;5.428;2023-04-08T02:44:39;102372.69;;;6.60;100.00
72116;BME280;59991;52.140;5.428;2023-04-08T02:45:11;102369.97;;;6.60;100.00
72116;BME280;59991;52.140;5.428;2023-04-08T02:45:43;102373.47;;;6.61;100.00
72116;BME280;59991;52.140;5.428;2023-04-08T02:46:14;102370.75;;;6.61;100.00
72116;BME280;59991;52.140;5.428;2023-04-08T02:46:46;102369.66;;;6.62;100.00
72116;BME280;59991;52.140;5.428;2023-04-08T02:47:18;102372.38;;;6.62;100.00
72116;BME280;59991;52.140;5.428;2023-04-08T02:47:49;102368.84;;;6.61;100.00
72116;BME280;59991;52.140;5.428;2023-04-08T02:48:20;102368.84;;;6.61;100.00
72116;BME280;59991;52.140;5.428;2023-04-08T02:48:52;102371.88;;;6.59;100.00
72116;BME280;59991;52.140;5.428;2023-04-08T02:49:23;102372.19;;;6.58;100.00
72116;BME280;59991;52.140;5.428;2023-04-08T02:49:55;102367.88;;;6.57;100.00
72116;BME280;59991;52.140;5.428;2023-04-08T02:50:26;102372.97;;;6.58;100.00
72116;BME280;59991;52.140;5.428;2023-04-08T02:50:58;102379.22;;;6.59;100.00
72116;BME280;59991;52.140;5.428;2023-04-08T02:51:29;102368.38;;;6.59;100.00
72116;BME280;59991;52.140;5.428;2023-04-08T02:52:02;102365.66;;;6.59;100.00
72116;BME280;59991;52.140;5.428;2023-04-08T02:52:33;102372.69;;;6.60;100.00
72116;BME280;59991;52.140;5.428;2023-04-08T02:53:04;102374.59;;;6.59;100.00
72116;BME280;59991;52.140;5.428;2023-04-08T02:53:36;102371.69;;;6.56;100.00
72116;BME280;59991;52.140;5.428;2023-04-08T02:54:07;102375.50;;;6.55;100.00
72116;BME280;59991;52.140;5.428;2023-04-08T02:54:39;102375.50;;;6.55;100.00
72116;BME280;59991;52.140;5.428;2023-04-08T02:55:10;102377.44;;;6.54;100.00
72116;BME280;59991;52.140;5.428;2023-04-08T02:55:41;102375.50;;;6.55;100.00
72116;BME280;59991;52.140;5.428;2023-04-08T02:56:13;102379.81;;;6.56;100.00
72116;BME280;59991;52.140;5.428;2023-04-08T02:56:44;102385.75;;;6.58;100.00
72116;BME280;59991;52.140;5.428;2023-04-08T02:57:16;102380.94;;;6.55;100.00
72116;BME280;59991;52.140;5.428;2023-04-08T02:57:47;102382.53;;;6.56;100.00